Durango, CO

10:07 PM MDT on July 29, 2016 (GMT -0600)
Edgemont Highlands | | Change Station

Elev 7484 ft 37.31 °N, 107.79 °W | Updated 10 seconds ago

Clear
Clear
71.1 °F
Feels Like 77 °F
N
3.0
Wind Variable Wind from SE
Gusts 12.0 mph

Today
High -- | Low -- °F
--% Chance of Precip.
Yesterday
High -- | Low -- °F
Precip. -- in
Pressure 29.87 in
Visibility 10.0 miles
Clouds Clear
Heat Index 77 °F
Dew Point 42 °F
Humidity 35%
Rainfall Not available.
Snow Depth Not available.
6:13 AM 8:21 PM
Waning Crescent, 16% visible
METAR KDRO 300353Z AUTO 12007KT 10SM CLR 24/06 A3018 RMK AO2 SLP114 T02390056
Pressure 29.87 in
Visibility 10.0 miles
Clouds Clear
Heat Index 77 °F
Dew Point 42 °F
Humidity 35%
Rainfall Not available.
Snow Depth Not available.
6:13 AM 8:21 PM
Waning Crescent, 16% visible
METAR KDRO 300353Z AUTO 12007KT 10SM CLR 24/06 A3018 RMK AO2 SLP114 T02390056

10-Day Weather Forecast

Almanac

Astronomy

Jul. 29, 2016 Rise Set
Actual Time
Civil Twilight
Nautical Twilight
Astronomical Twilight
Moon
Length of Visible Light
Length of Day
Tomorrow will be .
, % of the Moon is Illuminated

Today's Extremes

State Highs State Lows

Community

WunderPhotos

Upload Photos

1,928,500 photos uploaded!

WunderBlog® & News

Nearby

Air Quality

  Air Quality AQ Index Pollutant
Not available.

Snow Depth

Station Depth Elevation

Earthquake Activity

City Distance Mag. Time & Date
Minimum magnitude displayed is 2.5.

Coastal Water Temperatures

Place Temperature

Stations

Nearby Weather Stations

Station Location Temp. Windchill Dew Point Humidity Wind Precip. Elev Updated Type
                   

Watches & Warnings

There are currently no watches in effect.